createdAt,value
2023-06-19T00:00:31.366Z,11.10
2023-06-19T00:02:58.216Z,11.95
2023-06-19T00:05:26.056Z,11.13
2023-06-19T00:07:52.835Z,11.32
2023-06-19T00:10:19.361Z,11.50
2023-06-19T00:12:45.861Z,11.63
2023-06-19T00:15:12.523Z,11.35
2023-06-19T00:17:39.080Z,11.45
2023-06-19T00:20:09.140Z,11.55
2023-06-19T00:22:35.571Z,11.65
2023-06-19T00:25:02.118Z,11.23
2023-06-19T00:27:28.547Z,10.38
2023-06-19T00:29:55.067Z,11.18
2023-06-19T00:32:21.535Z,13.18
2023-06-19T00:34:48.045Z,11.65
2023-06-19T00:37:14.608Z,11.30
2023-06-19T00:39:45.023Z,10.88
2023-06-19T00:42:11.773Z,10.90
2023-06-19T00:44:38.219Z,11.40
2023-06-19T00:47:05.390Z,11.75
2023-06-19T00:49:32.650Z,11.32
2023-06-19T00:51:59.354Z,11.20
2023-06-19T00:54:26.386Z,11.32
2023-06-19T00:56:53.518Z,11.90
2023-06-19T00:59:20.753Z,12.30
2023-06-19T01:01:47.581Z,11.15
2023-06-19T01:04:14.684Z,14.07
2023-06-19T01:06:59.790Z,10.85
2023-06-19T01:09:32.071Z,11.48
2023-06-19T01:12:05.868Z,12.10
2023-06-19T01:14:38.937Z,11.63
2023-06-19T01:17:06.504Z,12.20
2023-06-19T01:19:33.061Z,11.50
2023-06-19T01:22:04.109Z,11.38
2023-06-19T01:24:30.571Z,12.18
2023-06-19T01:26:57.204Z,11.52
2023-06-19T01:29:23.863Z,12.05
2023-06-19T01:31:53.924Z,12.02
2023-06-19T01:34:22.438Z,11.30
2023-06-19T01:36:52.559Z,11.50
2023-06-19T01:39:20.696Z,11.30
2023-06-19T01:41:48.385Z,12.65
2023-06-19T01:44:15.086Z,12.00
2023-06-19T01:46:41.678Z,11.52
2023-06-19T01:49:10.063Z,12.02
2023-06-19T01:51:36.938Z,12.38
2023-06-19T01:54:04.081Z,11.68
2023-06-19T01:56:30.533Z,13.10
2023-06-19T01:58:56.946Z,11.93
2023-06-19T02:01:23.746Z,12.05
2023-06-19T02:03:50.252Z,12.75
2023-06-19T02:06:16.697Z,12.68
2023-06-19T02:08:43.150Z,12.02
2023-06-19T02:11:09.589Z,12.98
2023-06-19T02:13:37.114Z,13.50
2023-06-19T02:16:05.207Z,12.52
2023-06-19T02:18:31.640Z,13.88
2023-06-19T02:20:58.073Z,12.85
2023-06-19T02:23:24.657Z,12.98
2023-06-19T02:25:51.086Z,12.93
2023-06-19T02:28:17.499Z,13.65
2023-06-19T02:30:43.917Z,12.77
2023-06-19T02:33:10.375Z,13.52
2023-06-19T02:35:36.817Z,13.30
2023-06-19T02:38:05.629Z,13.70
2023-06-19T02:40:32.050Z,13.20
2023-06-19T02:42:58.452Z,13.13
2023-06-19T02:45:24.891Z,13.02
2023-06-19T02:47:53.028Z,13.13
2023-06-19T02:50:19.499Z,13.43
2023-06-19T02:52:45.914Z,14.35
2023-06-19T02:55:12.332Z,14.27
2023-06-19T02:57:38.768Z,14.23
2023-06-19T03:00:10.255Z,13.82
2023-06-19T03:02:36.754Z,13.50
2023-06-19T03:05:03.766Z,14.23
2023-06-19T03:07:30.367Z,14.35
2023-06-19T03:09:56.778Z,14.65
2023-06-19T03:12:23.224Z,14.40
2023-06-19T03:14:49.639Z,14.45
2023-06-19T03:17:16.083Z,13.75
2023-06-19T03:19:42.539Z,14.20
2023-06-19T03:22:08.950Z,14.07
2023-06-19T03:24:35.445Z,13.30
2023-06-19T03:27:01.951Z,14.52
2023-06-19T03:29:28.904Z,13.45
2023-06-19T03:31:55.342Z,14.43
2023-06-19T03:34:21.774Z,13.85
2023-06-19T03:36:48.223Z,14.77
2023-06-19T03:39:15.175Z,14.02
2023-06-19T03:41:41.621Z,13.52
2023-06-19T03:44:08.116Z,12.85
2023-06-19T03:46:34.609Z,14.65
2023-06-19T03:49:01.124Z,13.25
2023-06-19T03:51:30.142Z,13.85
2023-06-19T03:53:56.629Z,13.70
2023-06-19T03:56:23.121Z,14.10
2023-06-19T03:58:49.547Z,14.00
2023-06-19T04:01:16.022Z,13.50
2023-06-19T04:03:42.570Z,13.52
2023-06-19T04:06:09.051Z,14.40
2023-06-19T04:08:35.501Z,14.00
2023-06-19T04:11:01.947Z,15.02
2023-06-19T04:13:28.378Z,13.98
2023-06-19T04:15:54.817Z,14.35
2023-06-19T04:18:21.275Z,15.07
2023-06-19T04:20:47.933Z,13.77
2023-06-19T04:23:14.424Z,14.23
2023-06-19T04:25:40.841Z,12.95
2023-06-19T04:28:07.309Z,14.10
2023-06-19T04:30:33.726Z,13.70
2023-06-19T04:33:00.291Z,13.35
2023-06-19T04:35:27.608Z,12.65
2023-06-19T04:37:54.854Z,14.27
2023-06-19T04:40:21.440Z,14.23
2023-06-19T04:42:48.075Z,13.10
2023-06-19T04:45:14.507Z,13.75
2023-06-19T04:47:52.594Z,13.70
2023-06-19T04:50:19.452Z,13.60
2023-06-19T04:52:45.865Z,13.85
2023-06-19T04:55:12.286Z,14.32
2023-06-19T04:57:38.746Z,14.25
2023-06-19T05:00:07.851Z,12.27
2023-06-19T05:02:34.978Z,13.07
2023-06-19T05:05:03.923Z,13.30
2023-06-19T05:07:33.537Z,13.55
2023-06-19T05:10:00.288Z,14.00
2023-06-19T05:12:26.810Z,14.23
2023-06-19T05:14:53.234Z,14.15
2023-06-19T05:17:19.772Z,13.95
2023-06-19T05:19:46.235Z,13.93
2023-06-19T05:22:12.724Z,13.90
2023-06-19T05:24:39.195Z,14.00
2023-06-19T05:27:06.086Z,14.07
2023-06-19T05:29:33.494Z,13.77
2023-06-19T05:31:59.943Z,14.20
2023-06-19T05:34:26.343Z,14.13
2023-06-19T05:36:52.781Z,14.38
2023-06-19T05:39:20.017Z,13.75
2023-06-19T05:41:49.450Z,13.88
2023-06-19T05:44:17.724Z,14.77
2023-06-19T05:46:44.258Z,15.25
2023-06-19T05:49:10.704Z,14.85
2023-06-19T05:51:37.210Z,15.15
2023-06-19T05:54:04.958Z,15.20
2023-06-19T05:56:32.097Z,15.07
2023-06-19T05:58:58.545Z,13.80
2023-06-19T06:01:26.191Z,14.40
2023-06-19T06:03:52.723Z,15.30
2023-06-19T06:06:19.142Z,14.40
2023-06-19T06:08:45.579Z,14.93
2023-06-19T06:11:12.042Z,15.38
2023-06-19T06:13:38.476Z,15.40
2023-06-19T06:16:05.025Z,14.55
2023-06-19T06:18:31.494Z,15.63
2023-06-19T06:21:00.111Z,15.00
2023-06-19T06:23:26.776Z,15.27
2023-06-19T06:25:53.326Z,14.90
2023-06-19T06:28:19.769Z,16.38
2023-06-19T06:30:46.212Z,15.27
2023-06-19T06:33:12.658Z,15.60
2023-06-19T06:35:39.357Z,17.60
2023-06-19T06:38:05.976Z,15.50
2023-06-19T06:40:32.475Z,16.33
2023-06-19T06:42:59.235Z,17.88
2023-06-19T06:45:27.943Z,17.50
2023-06-19T06:47:54.653Z,15.05
2023-06-19T06:50:21.426Z,17.55
2023-06-19T06:52:48.077Z,15.23
2023-06-19T06:55:14.784Z,14.20
2023-06-19T06:57:41.183Z,15.35
2023-06-19T07:00:10.878Z,18.73
2023-06-19T07:02:40.180Z,15.23
2023-06-19T07:05:08.225Z,15.20
2023-06-19T07:07:34.625Z,14.63
2023-06-19T07:10:01.042Z,14.85
2023-06-19T07:12:27.472Z,15.50
2023-06-19T07:14:57.062Z,14.40
2023-06-19T07:17:23.687Z,15.75
2023-06-19T07:19:50.105Z,15.30
2023-06-19T07:22:16.526Z,15.63
2023-06-19T07:24:42.997Z,16.95
2023-06-19T07:27:09.475Z,17.02
2023-06-19T07:29:35.985Z,15.63
2023-06-19T07:32:03.999Z,15.90
2023-06-19T07:34:31.841Z,17.08
2023-06-19T07:36:58.273Z,15.57
2023-06-19T07:39:24.685Z,15.23
2023-06-19T07:41:51.144Z,15.82
2023-06-19T07:44:19.044Z,14.95
2023-06-19T07:46:45.526Z,16.67
2023-06-19T07:49:12.018Z,16.65
2023-06-19T07:51:38.435Z,17.15
2023-06-19T07:54:04.920Z,14.55
2023-06-19T07:56:31.470Z,14.10
2023-06-19T07:58:57.909Z,13.40
2023-06-19T08:01:24.336Z,14.40
2023-06-19T08:03:50.889Z,15.20
2023-06-19T08:06:17.450Z,15.93
2023-06-19T08:08:43.889Z,15.80
2023-06-19T08:11:10.309Z,14.85
2023-06-19T08:13:36.727Z,14.82
2023-06-19T08:16:03.154Z,18.33
2023-06-19T08:18:29.771Z,14.50
2023-06-19T08:20:56.267Z,14.13
2023-06-19T08:23:22.717Z,13.68
2023-06-19T08:25:49.153Z,13.93
2023-06-19T08:28:15.614Z,13.68
2023-06-19T08:30:42.065Z,16.90
2023-06-19T08:33:09.468Z,13.57
2023-06-19T08:35:35.938Z,14.40
2023-06-19T08:38:02.408Z,15.13
2023-06-19T08:40:29.073Z,14.40
2023-06-19T08:42:56.917Z,14.07
2023-06-19T08:45:23.357Z,13.63
2023-06-19T08:47:50.138Z,12.43
2023-06-19T08:50:17.363Z,13.40
2023-06-19T08:52:43.785Z,14.35
2023-06-19T08:55:10.276Z,13.98
2023-06-19T08:57:39.414Z,14.85
2023-06-19T09:00:07.968Z,13.95
2023-06-19T09:02:52.305Z,13.57
2023-06-19T09:05:24.370Z,14.15
2023-06-19T09:07:59.508Z,14.57
2023-06-19T09:10:26.155Z,14.15
2023-06-19T09:13:05.764Z,16.95
2023-06-19T09:15:38.733Z,13.88
2023-06-19T09:18:06.028Z,15.02
2023-06-19T09:20:34.481Z,14.63
2023-06-19T09:23:01.562Z,13.98
2023-06-19T09:25:28.136Z,13.38
2023-06-19T09:27:58.374Z,13.20
2023-06-19T09:30:24.951Z,13.82
2023-06-19T09:32:51.711Z,16.02
2023-06-19T09:35:18.436Z,14.75
2023-06-19T09:37:46.194Z,13.48
2023-06-19T09:40:13.229Z,15.85
2023-06-19T09:42:44.282Z,14.23
2023-06-19T09:45:13.287Z,18.15
2023-06-19T09:47:50.046Z,14.55
2023-06-19T09:50:18.409Z,17.25
2023-06-19T09:52:45.631Z,16.60
2023-06-19T09:55:16.913Z,15.88
2023-06-19T09:57:45.289Z,16.60
2023-06-19T10:00:14.002Z,16.92
2023-06-19T10:02:42.408Z,13.38
2023-06-19T10:05:14.469Z,14.35
2023-06-19T10:07:50.591Z,16.38
2023-06-19T10:10:25.414Z,15.00
2023-06-19T10:12:53.412Z,13.95
2023-06-19T10:15:22.008Z,15.68
2023-06-19T10:17:53.405Z,13.98
2023-06-19T10:20:38.320Z,14.30
2023-06-19T10:23:25.040Z,14.85
2023-06-19T10:25:54.442Z,13.80
2023-06-19T10:28:29.756Z,15.98
2023-06-19T10:31:00.268Z,14.40
2023-06-19T10:33:29.235Z,14.93
2023-06-19T10:35:55.994Z,15.93
2023-06-19T10:38:22.612Z,15.70
2023-06-19T10:40:49.068Z,14.98
2023-06-19T10:43:26.428Z,14.60
2023-06-19T10:45:52.993Z,13.52
2023-06-19T10:48:23.870Z,18.92
2023-06-19T10:50:51.081Z,16.83
2023-06-19T10:53:33.900Z,13.75
2023-06-19T10:56:02.552Z,15.18
2023-06-19T10:58:30.215Z,18.63
2023-06-19T11:00:57.969Z,14.82
2023-06-19T11:03:24.674Z,14.80
2023-06-19T11:05:51.197Z,15.80
2023-06-19T11:08:22.440Z,15.07
2023-06-19T11:10:49.480Z,13.75
2023-06-19T11:13:21.029Z,14.70
2023-06-19T11:15:50.557Z,14.63
2023-06-19T11:18:18.513Z,13.30
2023-06-19T11:20:52.003Z,14.30
2023-06-19T11:23:27.022Z,13.55
2023-06-19T11:25:53.766Z,13.98
2023-06-19T11:28:23.172Z,13.20
2023-06-19T11:30:58.390Z,14.00
2023-06-19T11:33:25.300Z,14.63
2023-06-19T11:35:53.581Z,14.10
2023-06-19T11:38:24.450Z,13.52
2023-06-19T11:40:51.191Z,13.18
2023-06-19T11:43:29.142Z,18.00
2023-06-19T11:46:03.210Z,17.00
2023-06-19T11:48:29.725Z,14.90
2023-06-19T11:50:56.262Z,14.13
2023-06-19T11:53:23.851Z,12.90
2023-06-19T11:55:51.398Z,13.38
2023-06-19T11:58:18.789Z,12.55
2023-06-19T12:00:45.193Z,12.80
2023-06-19T12:03:11.820Z,12.23
2023-06-19T12:05:38.802Z,12.20
2023-06-19T12:08:06.516Z,12.80
2023-06-19T12:10:33.274Z,11.02
2023-06-19T12:12:59.692Z,13.00
2023-06-19T12:15:26.214Z,10.48
2023-06-19T12:17:53.334Z,10.65
2023-06-19T12:20:20.253Z,10.57
2023-06-19T12:22:46.669Z,10.27
2023-06-19T12:25:13.088Z,9.93
2023-06-19T12:27:39.622Z,8.77
2023-06-19T12:30:06.900Z,11.45
2023-06-19T12:32:33.316Z,9.73
2023-06-19T12:34:59.842Z,9.43
2023-06-19T12:37:26.372Z,10.98
2023-06-19T12:39:52.776Z,9.95
2023-06-19T12:42:19.212Z,10.30
2023-06-19T12:44:45.947Z,9.30
2023-06-19T12:47:12.634Z,9.75
2023-06-19T12:49:39.095Z,9.88
2023-06-19T12:52:05.916Z,10.15
2023-06-19T12:54:32.788Z,11.20
2023-06-19T12:56:59.240Z,11.10
2023-06-19T12:59:26.000Z,10.73
2023-06-19T13:01:52.457Z,11.40
2023-06-19T13:04:18.968Z,10.05
2023-06-19T13:06:45.417Z,10.32
2023-06-19T13:09:11.860Z,9.82
2023-06-19T13:11:38.285Z,10.15
2023-06-19T13:14:05.423Z,11.07
2023-06-19T13:16:45.341Z,10.90
2023-06-19T13:19:12.899Z,9.82
2023-06-19T13:21:39.320Z,10.77
2023-06-19T13:24:05.993Z,9.18
2023-06-19T13:26:32.492Z,10.45
2023-06-19T13:28:59.990Z,9.98
2023-06-19T13:31:26.742Z,10.38
2023-06-19T13:33:53.320Z,12.45
2023-06-19T13:36:20.518Z,11.68
2023-06-19T13:38:47.862Z,12.15
2023-06-19T13:41:14.303Z,13.70
2023-06-19T13:43:41.194Z,10.82
2023-06-19T13:46:09.182Z,10.30
2023-06-19T13:48:35.579Z,10.70
2023-06-19T13:51:02.033Z,11.10
2023-06-19T13:53:30.757Z,13.55
2023-06-19T13:55:57.224Z,11.13
2023-06-19T13:58:23.681Z,9.90
2023-06-19T14:00:50.167Z,10.95
2023-06-19T14:03:17.278Z,10.40
2023-06-19T14:05:44.907Z,11.27
2023-06-19T14:08:11.385Z,12.88
2023-06-19T14:10:38.058Z,12.80
2023-06-19T14:13:04.492Z,12.00
2023-06-19T14:15:30.920Z,10.60
2023-06-19T14:17:57.403Z,10.93
2023-06-19T14:20:24.007Z,12.10
2023-06-19T14:22:50.615Z,12.07
2023-06-19T14:25:17.003Z,10.68
2023-06-19T14:27:43.457Z,10.95
2023-06-19T14:30:10.422Z,10.52
2023-06-19T14:32:40.349Z,10.43
2023-06-19T14:35:07.640Z,11.05
2023-06-19T14:37:34.222Z,11.65
2023-06-19T14:40:00.676Z,10.38
2023-06-19T14:42:27.230Z,10.07
2023-06-19T14:44:53.660Z,9.98
2023-06-19T14:47:20.142Z,10.88
2023-06-19T14:49:46.913Z,13.98
2023-06-19T14:52:13.339Z,11.30
2023-06-19T14:54:39.854Z,10.85
2023-06-19T14:57:06.614Z,10.68
2023-06-19T14:59:33.032Z,10.13
2023-06-19T15:01:59.469Z,10.63
2023-06-19T15:04:26.025Z,9.68
2023-06-19T15:06:52.502Z,11.48
2023-06-19T15:09:18.915Z,9.95
2023-06-19T15:11:45.316Z,10.48
2023-06-19T15:14:11.792Z,10.77
2023-06-19T15:16:38.320Z,10.48
2023-06-19T15:19:04.927Z,10.50
2023-06-19T15:21:31.392Z,10.43
2023-06-19T15:23:57.968Z,11.50
2023-06-19T15:26:24.673Z,10.40
2023-06-19T15:28:54.437Z,9.68
2023-06-19T15:31:24.401Z,10.20
2023-06-19T15:33:51.200Z,10.55
2023-06-19T15:36:18.093Z,10.65
2023-06-19T15:38:45.052Z,9.63
2023-06-19T15:41:11.465Z,10.13
2023-06-19T15:43:38.700Z,10.55
2023-06-19T15:46:07.212Z,10.50
2023-06-19T15:48:34.085Z,12.50
2023-06-19T15:51:00.528Z,10.27
2023-06-19T15:53:26.927Z,12.40
2023-06-19T15:55:53.326Z,10.10
2023-06-19T15:58:19.734Z,11.30
2023-06-19T16:00:46.200Z,9.65
2023-06-19T16:03:12.670Z,9.63
2023-06-19T16:05:39.161Z,9.70
2023-06-19T16:08:05.680Z,10.63
2023-06-19T16:10:32.205Z,9.30
2023-06-19T16:12:58.634Z,10.50
2023-06-19T16:15:28.909Z,10.40
2023-06-19T16:17:56.343Z,9.55
2023-06-19T16:20:23.433Z,9.45
2023-06-19T16:22:53.277Z,13.05
2023-06-19T16:25:19.751Z,10.30
2023-06-19T16:27:46.214Z,10.90
2023-06-19T16:30:12.795Z,10.05
2023-06-19T16:32:39.332Z,13.68
2023-06-19T16:35:06.379Z,9.98
2023-06-19T16:37:32.868Z,10.48
2023-06-19T16:39:59.313Z,10.95
2023-06-19T16:42:26.635Z,10.25
2023-06-19T16:44:54.326Z,10.45
2023-06-19T16:47:21.064Z,10.20
2023-06-19T16:49:47.535Z,10.05
2023-06-19T16:52:14.137Z,9.85
2023-06-19T16:54:40.604Z,9.60
2023-06-19T16:57:07.144Z,11.30
2023-06-19T16:59:33.561Z,13.15
2023-06-19T17:02:00.030Z,12.00
2023-06-19T17:04:26.446Z,10.63
2023-06-19T17:06:52.859Z,10.05
2023-06-19T17:09:19.263Z,11.38
2023-06-19T17:11:45.704Z,10.98
2023-06-19T17:14:12.122Z,11.13
2023-06-19T17:16:38.574Z,10.35
2023-06-19T17:19:06.502Z,11.90
2023-06-19T17:21:33.247Z,11.77
2023-06-19T17:23:59.681Z,11.98
2023-06-19T17:26:26.217Z,11.35
2023-06-19T17:28:52.621Z,11.63
2023-06-19T17:31:19.026Z,10.07
2023-06-19T17:33:45.422Z,11.60
2023-06-19T17:36:11.821Z,10.45
2023-06-19T17:38:38.290Z,10.98
2023-06-19T17:41:05.390Z,12.13
2023-06-19T17:43:31.873Z,11.05
2023-06-19T17:45:58.319Z,14.60
2023-06-19T17:48:24.760Z,13.05
2023-06-19T17:50:51.176Z,11.65
2023-06-19T17:53:17.602Z,12.43
2023-06-19T17:55:44.373Z,11.48
2023-06-19T17:58:10.879Z,14.70
2023-06-19T18:00:37.341Z,12.63
2023-06-19T18:03:05.441Z,13.70
2023-06-19T18:05:31.973Z,13.52
2023-06-19T18:07:58.416Z,12.98
2023-06-19T18:10:25.034Z,13.60
2023-06-19T18:12:51.569Z,13.30
2023-06-19T18:15:18.112Z,13.15
2023-06-19T18:17:44.573Z,13.82
2023-06-19T18:20:11.920Z,14.57
2023-06-19T18:22:39.617Z,15.18
2023-06-19T18:25:06.460Z,12.55
2023-06-19T18:27:33.399Z,14.15
2023-06-19T18:30:02.221Z,14.18
2023-06-19T18:32:30.785Z,13.45
2023-06-19T18:34:57.238Z,14.00
2023-06-19T18:37:23.698Z,16.60
2023-06-19T18:39:52.976Z,12.82
2023-06-19T18:42:19.380Z,14.07
2023-06-19T18:44:45.781Z,14.55
2023-06-19T18:47:12.181Z,14.20
2023-06-19T18:49:38.612Z,13.48
2023-06-19T18:52:05.508Z,14.25
2023-06-19T18:54:31.919Z,15.35
2023-06-19T18:56:58.341Z,14.10
2023-06-19T18:59:24.785Z,13.77
2023-06-19T19:01:51.252Z,15.27
2023-06-19T19:04:17.778Z,14.68
2023-06-19T19:06:44.183Z,14.50
2023-06-19T19:09:10.689Z,14.23
2023-06-19T19:11:37.151Z,12.98
2023-06-19T19:14:03.640Z,14.63
2023-06-19T19:16:30.101Z,14.77
2023-06-19T19:18:56.527Z,14.43
2023-06-19T19:21:22.956Z,14.13
2023-06-19T19:23:49.405Z,14.20
2023-06-19T19:26:15.840Z,14.75
2023-06-19T19:28:42.249Z,14.90
2023-06-19T19:31:08.715Z,14.02
2023-06-19T19:33:35.191Z,16.35
2023-06-19T19:36:02.300Z,14.90
2023-06-19T19:38:28.707Z,19.50
2023-06-19T19:40:55.109Z,22.38
2023-06-19T19:43:21.514Z,16.67
2023-06-19T19:45:48.054Z,15.40
2023-06-19T19:48:14.552Z,16.75
2023-06-19T19:50:40.961Z,16.63
2023-06-19T19:53:07.357Z,17.23
2023-06-19T19:55:33.825Z,18.25
2023-06-19T19:58:01.952Z,25.42
2023-06-19T20:00:29.158Z,23.45
2023-06-19T20:02:55.649Z,18.13
2023-06-19T20:05:22.136Z,15.23
2023-06-19T20:07:48.576Z,16.33
2023-06-19T20:10:15.080Z,28.17
2023-06-19T20:12:41.484Z,16.67
2023-06-19T20:15:08.616Z,15.60
2023-06-19T20:17:35.078Z,17.65
2023-06-19T20:20:04.932Z,16.88
2023-06-19T20:22:31.410Z,16.65
2023-06-19T20:24:57.836Z,16.65
2023-06-19T20:27:24.247Z,16.55
2023-06-19T20:29:50.652Z,16.13
2023-06-19T20:32:17.060Z,16.08
2023-06-19T20:34:43.488Z,16.63
2023-06-19T20:37:09.993Z,17.13
2023-06-19T20:39:36.417Z,16.65
2023-06-19T20:42:03.600Z,39.05
2023-06-19T20:44:30.288Z,16.98
2023-06-19T20:46:58.523Z,17.02
2023-06-19T20:49:26.311Z,16.90
2023-06-19T20:51:52.768Z,17.63
2023-06-19T20:54:20.078Z,17.45
2023-06-19T20:56:46.466Z,16.48
2023-06-19T20:59:13.057Z,17.48
2023-06-19T21:01:40.474Z,25.52
2023-06-19T21:04:07.094Z,19.52
2023-06-19T21:06:34.592Z,19.67
2023-06-19T21:09:04.058Z,19.88
2023-06-19T21:11:30.522Z,18.73
2023-06-19T21:13:56.958Z,19.55
2023-06-19T21:16:23.873Z,19.30
2023-06-19T21:18:51.285Z,17.83
2023-06-19T21:21:17.714Z,20.75
2023-06-19T21:23:44.134Z,21.45
2023-06-19T21:26:10.550Z,19.77
2023-06-19T21:28:36.951Z,18.20
2023-06-19T21:31:03.350Z,17.70
2023-06-19T21:33:33.180Z,17.95
2023-06-19T21:35:59.639Z,17.38
2023-06-19T21:38:28.711Z,17.92
2023-06-19T21:40:55.141Z,17.45
2023-06-19T21:43:21.585Z,16.88
2023-06-19T21:45:48.147Z,17.60
2023-06-19T21:48:14.754Z,17.67
2023-06-19T21:50:41.218Z,18.02
2023-06-19T21:53:07.655Z,34.83
2023-06-19T21:55:34.162Z,34.33
2023-06-19T21:58:01.009Z,20.42
2023-06-19T22:00:28.956Z,19.60
2023-06-19T22:02:57.062Z,19.17
2023-06-19T22:05:23.576Z,20.17
2023-06-19T22:07:50.332Z,18.83
2023-06-19T22:10:17.126Z,19.85
2023-06-19T22:12:43.535Z,18.90
2023-06-19T22:15:10.411Z,18.67
2023-06-19T22:17:36.937Z,19.15
2023-06-19T22:20:04.589Z,19.90
2023-06-19T22:22:31.033Z,20.23
2023-06-19T22:24:57.485Z,18.55
2023-06-19T22:27:23.924Z,18.52
2023-06-19T22:29:50.362Z,19.55
2023-06-19T22:32:16.797Z,24.90
2023-06-19T22:34:43.220Z,26.55
2023-06-19T22:37:09.668Z,35.35
2023-06-19T22:39:36.074Z,21.10
2023-06-19T22:42:03.215Z,19.23
2023-06-19T22:44:29.632Z,20.33
2023-06-19T22:46:56.227Z,19.90
2023-06-19T22:49:22.620Z,18.98
2023-06-19T22:51:49.017Z,19.05
2023-06-19T22:54:15.435Z,19.25
2023-06-19T22:56:41.884Z,19.60
2023-06-19T22:59:08.319Z,20.30
2023-06-19T23:01:34.975Z,20.13
2023-06-19T23:04:01.523Z,19.20
2023-06-19T23:06:27.942Z,18.90
2023-06-19T23:08:54.343Z,19.20
2023-06-19T23:11:20.744Z,20.00
2023-06-19T23:13:47.234Z,19.67
2023-06-19T23:16:13.673Z,18.63
2023-06-19T23:18:40.082Z,19.08
2023-06-19T23:21:06.487Z,19.75
2023-06-19T23:23:33.572Z,19.95
2023-06-19T23:26:02.603Z,20.20
2023-06-19T23:28:32.480Z,20.70
2023-06-19T23:30:59.808Z,21.48
2023-06-19T23:33:26.984Z,20.60
2023-06-19T23:35:57.309Z,21.08
2023-06-19T23:38:25.233Z,45.60
2023-06-19T23:40:52.100Z,23.30
2023-06-19T23:43:19.030Z,21.40
2023-06-19T23:45:46.021Z,22.45
2023-06-19T23:48:12.750Z,21.00
2023-06-19T23:50:39.681Z,21.02
2023-06-19T23:53:06.369Z,21.35
2023-06-19T23:55:32.788Z,21.10
2023-06-19T23:57:59.170Z,20.60
